sensor_id;sensor_type;location;lat;lon;timestamp;pressure;altitude;pressure_sealevel;temperature;humidity
26823;BME280;14852;51.910;8.878;2024-01-25T00:01:14;100585.00;;;11.19;57.29
26823;BME280;14852;51.910;8.878;2024-01-25T00:03:40;100581.44;;;11.20;57.48
26823;BME280;14852;51.910;8.878;2024-01-25T00:06:06;100583.13;;;11.21;57.54
26823;BME280;14852;51.910;8.878;2024-01-25T00:08:34;100582.28;;;11.20;57.31
26823;BME280;14852;51.910;8.878;2024-01-25T00:11:01;100586.59;;;11.21;57.56
26823;BME280;14852;51.910;8.878;2024-01-25T00:13:27;100582.38;;;11.19;57.78
26823;BME280;14852;51.910;8.878;2024-01-25T00:15:53;100589.34;;;11.18;57.72
26823;BME280;14852;51.910;8.878;2024-01-25T00:18:19;100582.38;;;11.19;57.59
26823;BME280;14852;51.910;8.878;2024-01-25T00:20:44;100584.13;;;11.18;57.76
26823;BME280;14852;51.910;8.878;2024-01-25T00:23:10;100575.50;;;11.18;57.39
26823;BME280;14852;51.910;8.878;2024-01-25T00:25:36;100581.59;;;11.17;57.75
26823;BME280;14852;51.910;8.878;2024-01-25T00:28:02;100581.59;;;11.17;57.91
26823;BME280;14852;51.910;8.878;2024-01-25T00:30:29;100585.94;;;11.16;57.58
26823;BME280;14852;51.910;8.878;2024-01-25T00:32:56;100588.56;;;11.16;57.63
26823;BME280;14852;51.910;8.878;2024-01-25T00:35:22;100589.47;;;11.15;57.57
26823;BME280;14852;51.910;8.878;2024-01-25T00:37:48;100596.41;;;11.15;57.61
26823;BME280;14852;51.910;8.878;2024-01-25T00:40:15;100599.03;;;11.15;57.78
26823;BME280;14852;51.910;8.878;2024-01-25T00:42:45;100599.06;;;11.13;57.46
26823;BME280;14852;51.910;8.878;2024-01-25T00:45:14;100592.84;;;11.17;57.69
26823;BME280;14852;51.910;8.878;2024-01-25T00:47:40;100594.72;;;11.14;57.39
26823;BME280;14852;51.910;8.878;2024-01-25T00:50:06;100593.94;;;11.12;57.40
26823;BME280;14852;51.910;8.878;2024-01-25T00:52:33;100598.22;;;11.13;57.34
26823;BME280;14852;51.910;8.878;2024-01-25T00:54:59;100595.75;;;11.10;57.70
26823;BME280;14852;51.910;8.878;2024-01-25T00:57:25;100586.19;;;11.10;57.41
26823;BME280;14852;51.910;8.878;2024-01-25T00:59:51;100606.31;;;11.07;57.81
26823;BME280;14852;51.910;8.878;2024-01-25T01:02:17;100613.09;;;11.09;57.71
26823;BME280;14852;51.910;8.878;2024-01-25T01:04:43;100610.50;;;11.09;57.68
26823;BME280;14852;51.910;8.878;2024-01-25T01:07:10;100613.94;;;11.10;57.82
26823;BME280;14852;51.910;8.878;2024-01-25T01:09:36;100607.91;;;11.09;57.70
26823;BME280;14852;51.910;8.878;2024-01-25T01:12:02;100614.84;;;11.09;57.49
26823;BME280;14852;51.910;8.878;2024-01-25T01:14:27;100614.81;;;11.10;57.52
26823;BME280;14852;51.910;8.878;2024-01-25T01:16:53;100613.09;;;11.09;57.87
26823;BME280;14852;51.910;8.878;2024-01-25T01:19:19;100618.38;;;11.08;57.50
26823;BME280;14852;51.910;8.878;2024-01-25T01:21:45;100615.84;;;11.06;57.59
26823;BME280;14852;51.910;8.878;2024-01-25T01:24:11;100617.56;;;11.07;57.34
26823;BME280;14852;51.910;8.878;2024-01-25T01:26:37;100625.34;;;11.07;57.17
26823;BME280;14852;51.910;8.878;2024-01-25T01:29:03;100628.72;;;11.09;57.30
26823;BME280;14852;51.910;8.878;2024-01-25T01:31:30;100616.56;;;11.10;57.77
26823;BME280;14852;51.910;8.878;2024-01-25T01:33:56;100621.81;;;11.08;57.71
26823;BME280;14852;51.910;8.878;2024-01-25T01:36:23;100621.91;;;11.07;57.64
26823;BME280;14852;51.910;8.878;2024-01-25T01:38:49;100618.50;;;11.05;57.48
26823;BME280;14852;51.910;8.878;2024-01-25T01:41:15;100611.63;;;11.04;57.63
26823;BME280;14852;51.910;8.878;2024-01-25T01:43:41;100615.25;;;11.00;57.41
26823;BME280;14852;51.910;8.878;2024-01-25T01:46:34;100622.25;;;10.98;58.05
26823;BME280;14852;51.910;8.878;2024-01-25T01:49:12;100623.34;;;10.92;57.56
26823;BME280;14852;51.910;8.878;2024-01-25T01:51:38;100631.31;;;10.87;57.65
26823;BME280;14852;51.910;8.878;2024-01-25T01:54:09;100637.38;;;10.88;57.86
26823;BME280;14852;51.910;8.878;2024-01-25T01:56:35;100643.53;;;10.85;57.55
26823;BME280;14852;51.910;8.878;2024-01-25T01:59:04;100639.19;;;10.86;57.86
26823;BME280;14852;51.910;8.878;2024-01-25T02:01:30;100639.19;;;10.86;58.17
26823;BME280;14852;51.910;8.878;2024-01-25T02:03:57;100625.47;;;10.82;58.23
26823;BME280;14852;51.910;8.878;2024-01-25T02:06:26;100630.75;;;10.81;57.90
26823;BME280;14852;51.910;8.878;2024-01-25T02:08:52;100632.59;;;10.77;58.04
26823;BME280;14852;51.910;8.878;2024-01-25T02:11:26;100639.59;;;10.75;58.29
26823;BME280;14852;51.910;8.878;2024-01-25T02:13:52;100637.84;;;10.76;57.76
26823;BME280;14852;51.910;8.878;2024-01-25T02:16:18;100636.22;;;10.73;57.83
26823;BME280;14852;51.910;8.878;2024-01-25T02:18:46;100631.16;;;10.70;57.88
26823;BME280;14852;51.910;8.878;2024-01-25T02:21:12;100637.31;;;10.68;57.86
26823;BME280;14852;51.910;8.878;2024-01-25T02:23:38;100633.81;;;10.69;58.28
26823;BME280;14852;51.910;8.878;2024-01-25T02:26:04;100638.09;;;10.70;57.96
26823;BME280;14852;51.910;8.878;2024-01-25T02:28:35;100630.38;;;10.68;58.46
26823;BME280;14852;51.910;8.878;2024-01-25T02:31:15;100630.44;;;10.67;58.45
26823;BME280;14852;51.910;8.878;2024-01-25T02:34:11;100640.75;;;10.68;58.18
26823;BME280;14852;51.910;8.878;2024-01-25T02:36:47;100642.47;;;10.69;58.15
26823;BME280;14852;51.910;8.878;2024-01-25T02:39:33;100636.41;;;10.69;58.18
26823;BME280;14852;51.910;8.878;2024-01-25T02:42:19;100644.38;;;10.64;57.98
26823;BME280;14852;51.910;8.878;2024-01-25T02:45:05;100632.34;;;10.62;58.65
26823;BME280;14852;51.910;8.878;2024-01-25T02:47:45;100635.94;;;10.59;58.61
26823;BME280;14852;51.910;8.878;2024-01-25T02:50:34;100635.13;;;10.57;58.57
26823;BME280;14852;51.910;8.878;2024-01-25T02:53:27;100634.34;;;10.55;58.40
26823;BME280;14852;51.910;8.878;2024-01-25T02:56:03;100645.69;;;10.52;58.61
26823;BME280;14852;51.910;8.878;2024-01-25T02:58:42;100643.94;;;10.53;58.40
26823;BME280;14852;51.910;8.878;2024-01-25T03:01:26;100623.09;;;10.55;58.42
26823;BME280;14852;51.910;8.878;2024-01-25T03:03:59;100627.63;;;10.49;58.40
26823;BME280;14852;51.910;8.878;2024-01-25T03:06:31;100632.16;;;10.44;58.77
26823;BME280;14852;51.910;8.878;2024-01-25T03:09:25;100629.66;;;10.41;58.81
26823;BME280;14852;51.910;8.878;2024-01-25T03:12:04;100634.91;;;10.40;59.13
26823;BME280;14852;51.910;8.878;2024-01-25T03:14:51;100649.66;;;10.39;58.99
26823;BME280;14852;51.910;8.878;2024-01-25T03:17:22;100637.66;;;10.37;59.10
26823;BME280;14852;51.910;8.878;2024-01-25T03:20:07;100643.75;;;10.36;58.76
26823;BME280;14852;51.910;8.878;2024-01-25T03:22:51;100651.47;;;10.37;58.96
26823;BME280;14852;51.910;8.878;2024-01-25T03:25:55;100642.00;;;10.36;59.21
26823;BME280;14852;51.910;8.878;2024-01-25T03:28:44;100653.38;;;10.32;59.27
26823;BME280;14852;51.910;8.878;2024-01-25T03:31:31;100656.03;;;10.31;59.06
26823;BME280;14852;51.910;8.878;2024-01-25T03:34:13;100656.94;;;10.30;59.08
26823;BME280;14852;51.910;8.878;2024-01-25T03:36:55;100670.06;;;10.27;59.20
26823;BME280;14852;51.910;8.878;2024-01-25T03:39:25;100671.00;;;10.24;59.43
26823;BME280;14852;51.910;8.878;2024-01-25T03:42:31;100676.31;;;10.21;59.29
26823;BME280;14852;51.910;8.878;2024-01-25T03:45:02;100668.66;;;10.16;59.53
26823;BME280;14852;51.910;8.878;2024-01-25T03:47:42;100679.13;;;10.15;59.62
26823;BME280;14852;51.910;8.878;2024-01-25T03:50:21;100685.22;;;10.14;59.43
26823;BME280;14852;51.910;8.878;2024-01-25T03:52:52;100680.91;;;10.13;59.58
26823;BME280;14852;51.910;8.878;2024-01-25T03:55:30;100677.41;;;10.14;59.66
26823;BME280;14852;51.910;8.878;2024-01-25T03:58:04;100679.16;;;10.13;59.40
26823;BME280;14852;51.910;8.878;2024-01-25T04:00:50;100677.34;;;10.15;59.12
26823;BME280;14852;51.910;8.878;2024-01-25T04:03:35;100697.22;;;10.16;59.47
26823;BME280;14852;51.910;8.878;2024-01-25T04:06:40;100694.59;;;10.18;59.47
26823;BME280;14852;51.910;8.878;2024-01-25T04:09:35;100696.31;;;10.17;59.38
26823;BME280;14852;51.910;8.878;2024-01-25T04:12:29;100697.22;;;10.16;59.45
26823;BME280;14852;51.910;8.878;2024-01-25T04:15:15;100707.53;;;10.20;59.49
26823;BME280;14852;51.910;8.878;2024-01-25T04:18:15;100703.19;;;10.20;59.38
26823;BME280;14852;51.910;8.878;2024-01-25T04:21:00;100703.25;;;10.19;59.41
26823;BME280;14852;51.910;8.878;2024-01-25T04:23:45;100700.66;;;10.17;59.57
26823;BME280;14852;51.910;8.878;2024-01-25T04:26:17;100691.25;;;10.14;59.13
26823;BME280;14852;51.910;8.878;2024-01-25T04:29:00;100695.00;;;10.06;59.34
26823;BME280;14852;51.910;8.878;2024-01-25T04:32:13;100709.06;;;10.00;60.02
26823;BME280;14852;51.910;8.878;2024-01-25T04:34:54;100706.72;;;9.93;59.75
26823;BME280;14852;51.910;8.878;2024-01-25T04:37:44;100695.56;;;9.91;60.00
26823;BME280;14852;51.910;8.878;2024-01-25T04:40:16;100704.28;;;9.88;59.98
26823;BME280;14852;51.910;8.878;2024-01-25T04:43:16;100705.84;;;9.92;59.90
26823;BME280;14852;51.910;8.878;2024-01-25T04:46:00;100705.03;;;9.92;59.67
26823;BME280;14852;51.910;8.878;2024-01-25T04:48:41;100713.59;;;9.94;59.94
26823;BME280;14852;51.910;8.878;2024-01-25T04:51:37;100710.84;;;9.98;59.84
26823;BME280;14852;51.910;8.878;2024-01-25T04:54:15;100702.25;;;9.96;59.72
26823;BME280;14852;51.910;8.878;2024-01-25T04:56:54;100703.13;;;9.97;59.57
26823;BME280;14852;51.910;8.878;2024-01-25T04:59:47;100707.41;;;9.98;59.78
26823;BME280;14852;51.910;8.878;2024-01-25T05:02:35;100701.41;;;9.96;59.64
26823;BME280;14852;51.910;8.878;2024-01-25T05:05:16;100696.44;;;9.90;59.76
26823;BME280;14852;51.910;8.878;2024-01-25T05:08:00;100701.84;;;9.84;59.77
26823;BME280;14852;51.910;8.878;2024-01-25T05:10:26;100705.69;;;9.72;60.20
26823;BME280;14852;51.910;8.878;2024-01-25T05:13:11;100718.84;;;9.67;60.14
26823;BME280;14852;51.910;8.878;2024-01-25T05:15:50;100724.81;;;9.69;60.05
26823;BME280;14852;51.910;8.878;2024-01-25T05:18:29;100725.66;;;9.70;60.02
26823;BME280;14852;51.910;8.878;2024-01-25T05:21:00;100730.81;;;9.71;60.08
26823;BME280;14852;51.910;8.878;2024-01-25T05:23:36;100734.16;;;9.75;60.15
26823;BME280;14852;51.910;8.878;2024-01-25T05:26:23;100735.00;;;9.75;60.12
26823;BME280;14852;51.910;8.878;2024-01-25T05:28:56;100735.03;;;9.74;59.94
26823;BME280;14852;51.910;8.878;2024-01-25T05:31:48;100736.69;;;9.76;59.79
26823;BME280;14852;51.910;8.878;2024-01-25T05:34:28;100747.94;;;9.77;59.60
26823;BME280;14852;51.910;8.878;2024-01-25T05:37:15;100741.84;;;9.78;59.71
26823;BME280;14852;51.910;8.878;2024-01-25T05:39:56;100756.56;;;9.77;59.94
26823;BME280;14852;51.910;8.878;2024-01-25T05:42:37;100750.47;;;9.78;59.95
26823;BME280;14852;51.910;8.878;2024-01-25T05:45:16;100761.81;;;9.76;59.88
26823;BME280;14852;51.910;8.878;2024-01-25T05:48:05;100757.50;;;9.75;59.55
26823;BME280;14852;51.910;8.878;2024-01-25T05:50:49;100766.19;;;9.74;59.70
26823;BME280;14852;51.910;8.878;2024-01-25T05:53:43;100760.16;;;9.73;59.72
26823;BME280;14852;51.910;8.878;2024-01-25T05:56:22;100762.84;;;9.70;59.90
26823;BME280;14852;51.910;8.878;2024-01-25T05:58:56;100756.06;;;9.66;59.79
26823;BME280;14852;51.910;8.878;2024-01-25T06:01:32;100758.00;;;9.60;60.03
26823;BME280;14852;51.910;8.878;2024-01-25T06:04:36;100765.16;;;9.53;60.12
26823;BME280;14852;51.910;8.878;2024-01-25T06:07:17;100756.56;;;9.51;59.97
26823;BME280;14852;51.910;8.878;2024-01-25T06:10:14;100759.34;;;9.45;60.33
26823;BME280;14852;51.910;8.878;2024-01-25T06:12:50;100755.97;;;9.43;60.31
26823;BME280;14852;51.910;8.878;2024-01-25T06:15:48;100756.94;;;9.39;59.97
26823;BME280;14852;51.910;8.878;2024-01-25T06:18:27;100751.97;;;9.33;60.36
26823;BME280;14852;51.910;8.878;2024-01-25T06:21:21;100755.59;;;9.27;60.55
26823;BME280;14852;51.910;8.878;2024-01-25T06:23:59;100766.84;;;9.26;60.27
26823;BME280;14852;51.910;8.878;2024-01-25T06:26:49;100766.16;;;9.21;60.22
26823;BME280;14852;51.910;8.878;2024-01-25T06:29:52;100768.06;;;9.15;60.57
26823;BME280;14852;51.910;8.878;2024-01-25T06:36:37;100776.97;;;9.06;60.52
26823;BME280;14852;51.910;8.878;2024-01-25T06:41:57;100781.63;;;8.95;60.86
26823;BME280;14852;51.910;8.878;2024-01-25T06:44:22;100773.25;;;8.87;60.67
26823;BME280;14852;51.910;8.878;2024-01-25T06:46:48;100781.16;;;8.82;60.91
26823;BME280;14852;51.910;8.878;2024-01-25T06:49:16;100782.19;;;8.77;61.33
26823;BME280;14852;51.910;8.878;2024-01-25T06:51:42;100785.75;;;8.73;61.00
26823;BME280;14852;51.910;8.878;2024-01-25T06:54:08;100787.56;;;8.69;61.21
26823;BME280;14852;51.910;8.878;2024-01-25T06:56:34;100789.44;;;8.64;61.57
26823;BME280;14852;51.910;8.878;2024-01-25T06:59:00;100795.56;;;8.61;61.44
26823;BME280;14852;51.910;8.878;2024-01-25T07:01:26;100812.88;;;8.59;61.47
26823;BME280;14852;51.910;8.878;2024-01-25T07:03:53;100816.38;;;8.58;61.12
26823;BME280;14852;51.910;8.878;2024-01-25T07:06:19;100821.53;;;8.58;61.57
26823;BME280;14852;51.910;8.878;2024-01-25T07:08:45;100823.28;;;8.58;61.17
26823;BME280;14852;51.910;8.878;2024-01-25T07:11:11;100835.34;;;8.59;61.45
26823;BME280;14852;51.910;8.878;2024-01-25T07:13:37;100826.72;;;8.58;61.16
26823;BME280;14852;51.910;8.878;2024-01-25T07:16:03;100831.09;;;8.56;61.42
26823;BME280;14852;51.910;8.878;2024-01-25T07:18:29;100821.66;;;8.54;61.34
26823;BME280;14852;51.910;8.878;2024-01-25T07:20:55;100824.34;;;8.51;61.44
26823;BME280;14852;51.910;8.878;2024-01-25T07:23:21;100823.53;;;8.49;61.29
26823;BME280;14852;51.910;8.878;2024-01-25T07:25:47;100823.56;;;8.47;61.58
26823;BME280;14852;51.910;8.878;2024-01-25T07:28:13;100826.19;;;8.46;61.49
26823;BME280;14852;51.910;8.878;2024-01-25T07:30:39;100827.94;;;8.45;61.62
26823;BME280;14852;51.910;8.878;2024-01-25T07:33:05;100825.38;;;8.44;61.71
26823;BME280;14852;51.910;8.878;2024-01-25T07:35:32;100821.09;;;8.43;61.83
26823;BME280;14852;51.910;8.878;2024-01-25T07:37:57;100820.31;;;8.41;61.85
26823;BME280;14852;51.910;8.878;2024-01-25T07:40:23;100818.59;;;8.40;61.62
26823;BME280;14852;51.910;8.878;2024-01-25T07:42:49;100826.41;;;8.38;61.73
26823;BME280;14852;51.910;8.878;2024-01-25T07:45:15;100826.34;;;8.41;61.86
26823;BME280;14852;51.910;8.878;2024-01-25T07:47:42;100834.97;;;8.42;61.66
26823;BME280;14852;51.910;8.878;2024-01-25T07:50:08;100848.56;;;8.50;61.61
26823;BME280;14852;51.910;8.878;2024-01-25T07:52:33;100842.00;;;8.67;61.34
26823;BME280;14852;51.910;8.878;2024-01-25T07:54:59;100846.25;;;8.70;61.22
26823;BME280;14852;51.910;8.878;2024-01-25T07:57:25;100853.16;;;8.71;61.40
26823;BME280;14852;51.910;8.878;2024-01-25T07:59:51;100851.44;;;8.70;61.17
26823;BME280;14852;51.910;8.878;2024-01-25T08:02:17;100850.59;;;8.69;61.32
26823;BME280;14852;51.910;8.878;2024-01-25T08:04:43;100858.28;;;8.73;61.59
26823;BME280;14852;51.910;8.878;2024-01-25T08:07:08;100859.06;;;8.76;61.09
26823;BME280;14852;51.910;8.878;2024-01-25T08:09:34;100858.06;;;8.80;61.49
26823;BME280;14852;51.910;8.878;2024-01-25T08:12:00;100854.47;;;8.86;61.29
26823;BME280;14852;51.910;8.878;2024-01-25T08:14:26;100858.72;;;8.88;61.24
26823;BME280;14852;51.910;8.878;2024-01-25T08:16:51;100862.97;;;8.91;61.24
26823;BME280;14852;51.910;8.878;2024-01-25T08:19:17;100863.78;;;8.93;61.07
26823;BME280;14852;51.910;8.878;2024-01-25T08:21:43;100874.91;;;8.96;61.10
26823;BME280;14852;51.910;8.878;2024-01-25T08:24:09;100862.88;;;8.94;61.18
26823;BME280;14852;51.910;8.878;2024-01-25T08:26:34;100872.28;;;8.98;61.13
26823;BME280;14852;51.910;8.878;2024-01-25T08:29:00;100880.84;;;9.00;61.17
26823;BME280;14852;51.910;8.878;2024-01-25T08:31:26;100880.75;;;9.03;61.20
26823;BME280;14852;51.910;8.878;2024-01-25T08:33:52;100880.81;;;9.01;61.13
26823;BME280;14852;51.910;8.878;2024-01-25T08:36:18;100873.03;;;9.01;60.99
26823;BME280;14852;51.910;8.878;2024-01-25T08:38:44;100888.56;;;9.01;61.18
26823;BME280;14852;51.910;8.878;2024-01-25T08:41:10;100884.28;;;9.00;61.29
26823;BME280;14852;51.910;8.878;2024-01-25T08:43:37;100888.69;;;8.98;61.27
26823;BME280;14852;51.910;8.878;2024-01-25T08:46:03;100889.63;;;8.96;61.32
26823;BME280;14852;51.910;8.878;2024-01-25T08:48:28;100900.84;;;8.96;61.32
26823;BME280;14852;51.910;8.878;2024-01-25T08:50:54;100906.75;;;9.00;61.51
26823;BME280;14852;51.910;8.878;2024-01-25T08:53:20;100904.13;;;9.01;61.50
26823;BME280;14852;51.910;8.878;2024-01-25T08:55:53;100900.53;;;9.07;61.25
26823;BME280;14852;51.910;8.878;2024-01-25T08:58:19;100911.69;;;9.11;61.00
26823;BME280;14852;51.910;8.878;2024-01-25T09:01:32;100906.41;;;9.12;60.97
26823;BME280;14852;51.910;8.878;2024-01-25T09:03:58;100903.06;;;9.10;61.15
26823;BME280;14852;51.910;8.878;2024-01-25T09:06:29;100901.09;;;9.18;61.39
26823;BME280;14852;51.910;8.878;2024-01-25T09:08:56;100900.72;;;9.30;61.15
26823;BME280;14852;51.910;8.878;2024-01-25T09:11:22;100900.28;;;9.46;60.61
26823;BME280;14852;51.910;8.878;2024-01-25T09:13:49;100904.97;;;9.62;60.26
26823;BME280;14852;51.910;8.878;2024-01-25T09:16:16;100900.13;;;9.79;60.20
26823;BME280;14852;51.910;8.878;2024-01-25T09:18:41;100899.06;;;9.85;59.97
26823;BME280;14852;51.910;8.878;2024-01-25T09:21:07;100903.75;;;10.02;59.94
26823;BME280;14852;51.910;8.878;2024-01-25T09:23:33;100905.38;;;10.04;60.06
26823;BME280;14852;51.910;8.878;2024-01-25T09:25:59;100911.06;;;10.15;60.16
26823;BME280;14852;51.910;8.878;2024-01-25T09:28:25;100907.97;;;10.32;59.70
26823;BME280;14852;51.910;8.878;2024-01-25T09:30:50;100920.59;;;10.43;59.58
26823;BME280;14852;51.910;8.878;2024-01-25T09:33:16;100918.06;;;10.66;59.23
26823;BME280;14852;51.910;8.878;2024-01-25T09:35:42;100922.28;;;10.70;58.80
26823;BME280;14852;51.910;8.878;2024-01-25T09:38:08;100915.84;;;10.80;59.10
26823;BME280;14852;51.910;8.878;2024-01-25T09:40:34;100914.28;;;11.00;58.46
26823;BME280;14852;51.910;8.878;2024-01-25T09:43:01;100910.91;;;11.21;58.67
26823;BME280;14852;51.910;8.878;2024-01-25T09:45:27;100918.91;;;11.16;58.13
26823;BME280;14852;51.910;8.878;2024-01-25T09:47:53;100929.22;;;10.95;58.68
26823;BME280;14852;51.910;8.878;2024-01-25T09:50:19;100926.63;;;10.95;59.40
26823;BME280;14852;51.910;8.878;2024-01-25T09:52:45;100925.44;;;11.03;58.86
26823;BME280;14852;51.910;8.878;2024-01-25T09:55:15;100930.38;;;11.34;58.72
26823;BME280;14852;51.910;8.878;2024-01-25T09:57:46;100930.00;;;11.90;58.56
26823;BME280;14852;51.910;8.878;2024-01-25T10:00:15;100929.75;;;12.40;56.92
26823;BME280;14852;51.910;8.878;2024-01-25T10:02:41;100922.16;;;12.76;56.35
26823;BME280;14852;51.910;8.878;2024-01-25T10:05:07;100917.84;;;13.15;55.72
26823;BME280;14852;51.910;8.878;2024-01-25T10:07:41;100918.19;;;13.06;56.12
26823;BME280;14852;51.910;8.878;2024-01-25T10:10:08;100927.88;;;12.84;55.86
26823;BME280;14852;51.910;8.878;2024-01-25T10:12:34;100922.72;;;12.82;56.84
26823;BME280;14852;51.910;8.878;2024-01-25T10:15:00;100929.16;;;12.94;56.32
26823;BME280;14852;51.910;8.878;2024-01-25T10:17:28;100945.28;;;12.83;56.41
26823;BME280;14852;51.910;8.878;2024-01-25T10:19:53;100940.47;;;12.54;57.21
26823;BME280;14852;51.910;8.878;2024-01-25T10:22:19;100947.69;;;12.25;57.38
26823;BME280;14852;51.910;8.878;2024-01-25T10:24:45;100951.09;;;12.06;58.01
26823;BME280;14852;51.910;8.878;2024-01-25T10:27:11;100963.16;;;12.08;58.03
26823;BME280;14852;51.910;8.878;2024-01-25T10:29:38;100961.47;;;12.29;58.07
26823;BME280;14852;51.910;8.878;2024-01-25T10:32:04;100963.41;;;12.46;57.62
26823;BME280;14852;51.910;8.878;2024-01-25T10:34:30;100966.50;;;12.33;57.78
26823;BME280;14852;51.910;8.878;2024-01-25T10:36:57;100959.22;;;12.20;57.82
26823;BME280;14852;51.910;8.878;2024-01-25T10:39:24;100969.94;;;12.12;57.61
26823;BME280;14852;51.910;8.878;2024-01-25T10:41:50;100967.59;;;12.06;57.81
26823;BME280;14852;51.910;8.878;2024-01-25T10:44:19;100958.06;;;12.05;57.88
26823;BME280;14852;51.910;8.878;2024-01-25T10:46:49;100964.56;;;11.95;57.69
26823;BME280;14852;51.910;8.878;2024-01-25T10:49:16;100966.06;;;12.01;57.88
26823;BME280;14852;51.910;8.878;2024-01-25T10:51:44;100966.41;;;12.35;57.79
26823;BME280;14852;51.910;8.878;2024-01-25T10:54:12;100959.97;;;12.65;56.79
26823;BME280;14852;51.910;8.878;2024-01-25T10:56:42;100961.59;;;12.68;56.39
26823;BME280;14852;51.910;8.878;2024-01-25T10:59:07;100958.16;;;12.67;56.40
26823;BME280;14852;51.910;8.878;2024-01-25T11:01:34;100954.13;;;12.59;56.91
26823;BME280;14852;51.910;8.878;2024-01-25T11:04:00;100949.47;;;12.87;57.04
26823;BME280;14852;51.910;8.878;2024-01-25T11:06:27;100940.72;;;13.48;56.38
26823;BME280;14852;51.910;8.878;2024-01-25T11:09:07;100938.91;;;13.68;55.67
26823;BME280;14852;51.910;8.878;2024-01-25T11:11:32;100935.28;;;13.90;55.43
26823;BME280;14852;51.910;8.878;2024-01-25T11:14:01;100940.47;;;14.08;54.99
26823;BME280;14852;51.910;8.878;2024-01-25T11:16:32;100945.97;;;14.38;54.74
26823;BME280;14852;51.910;8.878;2024-01-25T11:19:00;100945.03;;;14.22;54.60
26823;BME280;14852;51.910;8.878;2024-01-25T11:21:52;100943.72;;;14.13;55.69
26823;BME280;14852;51.910;8.878;2024-01-25T11:24:23;100947.44;;;14.08;55.67
26823;BME280;14852;51.910;8.878;2024-01-25T11:26:53;100946.78;;;14.04;55.84
26823;BME280;14852;51.910;8.878;2024-01-25T11:29:21;100931.50;;;14.14;56.07
26823;BME280;14852;51.910;8.878;2024-01-25T11:31:50;100935.94;;;14.48;55.58
26823;BME280;14852;51.910;8.878;2024-01-25T11:34:16;100927.72;;;14.73;55.73
26823;BME280;14852;51.910;8.878;2024-01-25T11:36:44;100926.75;;;14.91;55.54
26823;BME280;14852;51.910;8.878;2024-01-25T11:39:11;100930.78;;;14.98;55.65
26823;BME280;14852;51.910;8.878;2024-01-25T11:41:38;100929.00;;;14.99;55.87
26823;BME280;14852;51.910;8.878;2024-01-25T11:44:04;100921.28;;;14.96;56.26
26823;BME280;14852;51.910;8.878;2024-01-25T11:46:33;100926.63;;;14.77;56.10
26823;BME280;14852;51.910;8.878;2024-01-25T11:48:59;100920.41;;;14.45;56.75
26823;BME280;14852;51.910;8.878;2024-01-25T11:51:25;100913.84;;;14.36;57.20
26823;BME280;14852;51.910;8.878;2024-01-25T11:53:51;100915.13;;;14.28;56.76
26823;BME280;14852;51.910;8.878;2024-01-25T11:56:21;100918.50;;;14.12;56.79
26823;BME280;14852;51.910;8.878;2024-01-25T11:58:48;100913.06;;;14.17;57.56
26823;BME280;14852;51.910;8.878;2024-01-25T12:01:16;100906.53;;;14.26;57.52
26823;BME280;14852;51.910;8.878;2024-01-25T12:03:43;100915.91;;;14.30;57.72
26823;BME280;14852;51.910;8.878;2024-01-25T12:06:09;100904.50;;;14.31;56.95
26823;BME280;14852;51.910;8.878;2024-01-25T12:08:35;100917.97;;;14.23;56.44
26823;BME280;14852;51.910;8.878;2024-01-25T12:11:08;100910.97;;;14.24;55.77
26823;BME280;14852;51.910;8.878;2024-01-25T12:13:41;100908.22;;;14.27;55.66
26823;BME280;14852;51.910;8.878;2024-01-25T12:16:08;100903.97;;;14.24;54.85
26823;BME280;14852;51.910;8.878;2024-01-25T12:18:34;100913.94;;;13.99;54.58
26823;BME280;14852;51.910;8.878;2024-01-25T12:21:04;100908.81;;;13.78;54.22
26823;BME280;14852;51.910;8.878;2024-01-25T12:23:39;100914.25;;;13.55;54.67
26823;BME280;14852;51.910;8.878;2024-01-25T12:26:09;100902.19;;;13.34;54.16
26823;BME280;14852;51.910;8.878;2024-01-25T12:28:37;100903.94;;;13.15;54.19
26823;BME280;14852;51.910;8.878;2024-01-25T12:31:05;100901.75;;;13.04;54.81
26823;BME280;14852;51.910;8.878;2024-01-25T12:33:32;100904.09;;;12.91;54.71
26823;BME280;14852;51.910;8.878;2024-01-25T12:35:58;100905.25;;;12.84;54.31
26823;BME280;14852;51.910;8.878;2024-01-25T12:38:25;100893.41;;;12.77;54.05
26823;BME280;14852;51.910;8.878;2024-01-25T12:40:51;100897.88;;;12.74;54.27
26823;BME280;14852;51.910;8.878;2024-01-25T12:43:19;100907.88;;;12.64;54.41
26823;BME280;14852;51.910;8.878;2024-01-25T12:45:47;100905.91;;;12.49;54.50
26823;BME280;14852;51.910;8.878;2024-01-25T12:48:12;100909.06;;;12.35;54.57
26823;BME280;14852;51.910;8.878;2024-01-25T12:50:38;100920.25;;;12.17;54.43
26823;BME280;14852;51.910;8.878;2024-01-25T12:53:05;100912.09;;;12.04;54.91
26823;BME280;14852;51.910;8.878;2024-01-25T12:55:32;100915.72;;;12.00;54.40
26823;BME280;14852;51.910;8.878;2024-01-25T12:57:58;100905.97;;;11.83;54.72
26823;BME280;14852;51.910;8.878;2024-01-25T13:00:25;100902.22;;;11.67;55.15
26823;BME280;14852;51.910;8.878;2024-01-25T13:02:51;100890.19;;;11.65;55.01
26823;BME280;14852;51.910;8.878;2024-01-25T13:05:19;100892.00;;;11.63;55.37
26823;BME280;14852;51.910;8.878;2024-01-25T13:07:44;100886.22;;;11.54;55.53
26823;BME280;14852;51.910;8.878;2024-01-25T13:10:10;100882.06;;;11.50;54.94
26823;BME280;14852;51.910;8.878;2024-01-25T13:12:39;100878.66;;;11.48;55.72
26823;BME280;14852;51.910;8.878;2024-01-25T13:15:06;100876.19;;;11.45;55.27
26823;BME280;14852;51.910;8.878;2024-01-25T13:17:35;100881.56;;;11.41;55.00
26823;BME280;14852;51.910;8.878;2024-01-25T13:20:02;100879.25;;;11.33;55.11
26823;BME280;14852;51.910;8.878;2024-01-25T13:22:28;100889.09;;;11.25;55.64
26823;BME280;14852;51.910;8.878;2024-01-25T13:24:55;100880.69;;;11.18;55.50